Fenter, Arkansas
Current Conditions -  °F | °C
As of 3:53 AM on Saturday 29 Nov 2014 (Local Time) from KHOT Reporting Station
Overcast Overcast  
Wind Chill: 53°   Ceiling: 800
Heat Index: 53°   Visibility: 10mi
Dew Point: 50°   Wind: 7mph
Humidity: 89%   Direction: 220°SW
Pressure: 30"   Gusts: NA
Location:  34.445°N, 92.6447°W
Report Text: KHOT 290953Z AUTO 22006KT 10SM OVC008 12/10 A3000 RMK AO2 SLP158 T01170100
Loading
Personal Weather Stations






























Interactive Weather Map New forecast layout! Learn more

10-Day Weather Forecast

Advertisements
Track Severe Weather on mobile